Time;durP1;ratioP1;P1;durP2;ratioP2;P2;SDS_P1;SDS_P2;PMS_P1;PMS_P2;Temp;Humidity;BMP_temperature;BMP_pressure;BME280_temperature;BME280_humidity;BME280_pressure;Samples;Min_cycle;Max_cycle;Signal;HPM_P1;HPM_P2
2021/01/20 06:35:20;;;;;;;26.97;13.50;;;;;;;;;;1768227;79;23440;-82
2021/01/20 06:37:47;;;;;;;38.58;15.45;;;;;;;;;;1729478;82;21155;-80
2021/01/20 06:40:21;;;;;;;37.75;14.98;;;;;;;;;;1748892;82;21567;-81
2021/01/20 06:42:49;;;;;;;39.30;16.65;;;;;;;;;;1740790;80;21175;-78
2021/01/20 06:45:19;;;;;;;43.45;18.60;;;;;;;;;;1775786;80;21147;-79
2021/01/20 06:48:02;;;;;;;37.15;17.25;;;;;;;;;;1743244;80;21214;-79
2021/01/20 06:50:30;;;;;;;37.33;16.27;;;;;;;;;;1737212;82;21123;-79
2021/01/20 06:53:00;;;;;;;43.00;16.93;;;;;;;;;;1752494;80;21159;-79
2021/01/20 06:55:36;;;;;;;31.00;16.05;;;;;;;;;;1726119;82;21183;-80
2021/01/20 06:58:18;;;;;;;32.25;15.25;;;;;;;;;;1738020;82;21171;-80
2021/01/20 07:00:46;;;;;;;34.67;15.05;;;;;;;;;;1738689;80;21121;-80
2021/01/20 07:03:12;;;;;;;35.90;16.95;;;;;;;;;;1736701;81;21140;-80
2021/01/20 07:05:40;;;;;;;33.53;16.15;;;;;;;;;;1732304;80;21139;-81
2021/01/20 07:08:07;;;;;;;29.42;15.00;;;;;;;;;;1737074;82;21208;-79
2021/01/20 07:10:53;;;;;;;37.60;16.48;;;;;;;;;;1738282;82;21152;-81
2021/01/20 07:13:20;;;;;;;35.83;16.90;;;;;;;;;;1740148;82;21168;-79
2021/01/20 07:15:49;;;;;;;35.98;16.05;;;;;;;;;;1740410;82;21659;-80
2021/01/20 07:18:16;;;;;;;37.35;16.85;;;;;;;;;;1749143;82;21120;-81
2021/01/20 07:20:42;;;;;;;38.88;16.45;;;;;;;;;;1745887;82;21626;-81
2021/01/20 07:23:19;;;;;;;43.23;17.57;;;;;;;;;;1740033;82;21663;-84
2021/01/20 07:25:50;;;;;;;39.45;18.17;;;;;;;;;;1678451;85;21156;-85
2021/01/20 07:28:25;;;;;;;41.35;17.30;;;;;;;;;;1665248;84;21156;-86
2021/01/20 07:30:56;;;;;;;39.33;17.55;;;;;;;;;;1689753;83;21167;-83
2021/01/20 07:33:28;;;;;;;39.25;19.07;;;;;;;;;;1658587;84;21174;-84
2021/01/20 07:35:54;;;;;;;45.88;19.25;;;;;;;;;;1714773;81;21505;-82
2021/01/20 07:38:32;;;;;;;41.42;18.92;;;;;;;;;;1741437;80;21195;-85
2021/01/20 07:40:59;;;;;;;38.83;18.30;;;;;;;;;;1737285;82;21165;-79
2021/01/20 07:43:25;;;;;;;35.92;16.95;;;;;;;;;;1734288;82;21168;-81
2021/01/20 07:45:52;;;;;;;41.88;17.77;;;;;;;;;;1744877;80;21147;-80
2021/01/20 07:48:20;;;;;;;42.78;19.15;;;;;;;;;;1728316;82;21266;-79
2021/01/20 07:50:47;;;;;;;40.73;18.85;;;;;;;;;;1724318;82;21160;-82
2021/01/20 07:53:16;;;;;;;33.48;16.48;;;;;;;;;;1723776;83;21168;-81
2021/01/20 07:55:42;;;;;;;39.85;18.10;;;;;;;;;;1723671;82;21614;-78
2021/01/20 07:58:08;;;;;;;36.10;16.80;;;;;;;;;;1742222;80;21156;-80
2021/01/20 08:00:41;;;;;;;38.38;17.27;;;;;;;;;;1732511;82;21631;-79
2021/01/20 08:03:08;;;;;;;39.13;17.35;;;;;;;;;;1740783;82;21139;-81
2021/01/20 08:05:34;;;;;;;37.58;17.80;;;;;;;;;;1734064;82;21613;-80
2021/01/20 08:08:04;;;;;;;36.10;16.05;;;;;;;;;;1731886;82;21120;-81
2021/01/20 08:10:30;;;;;;;38.13;17.17;;;;;;;;;;1731929;82;21152;-78
2021/01/20 08:12:58;;;;;;;41.65;17.17;;;;;;;;;;1732372;82;21653;-80
2021/01/20 08:15:24;;;;;;;36.00;17.23;;;;;;;;;;1742196;82;21161;-77
2021/01/20 08:17:52;;;;;;;35.50;17.32;;;;;;;;;;1733787;82;21148;-79
2021/01/20 08:20:19;;;;;;;37.50;17.92;;;;;;;;;;1738971;82;21169;-78
2021/01/20 08:22:45;;;;;;;37.95;16.85;;;;;;;;;;1737122;82;21179;-81
2021/01/20 08:25:13;;;;;;;43.55;18.65;;;;;;;;;;1736454;81;21139;-80
2021/01/20 08:27:40;;;;;;;39.40;18.25;;;;;;;;;;1747199;82;21117;-81
2021/01/20 08:30:06;;;;;;;34.18;16.32;;;;;;;;;;1732534;82;21164;-81
2021/01/20 08:32:33;;;;;;;36.77;17.65;;;;;;;;;;1737633;82;21163;-82
2021/01/20 08:35:00;;;;;;;38.00;17.00;;;;;;;;;;1734003;82;21196;-80
2021/01/20 08:37:34;;;;;;;36.90;17.23;;;;;;;;;;1729581;82;21185;-81
2021/01/20 08:40:05;;;;;;;38.95;17.85;;;;;;;;;;1730684;82;21174;-80
2021/01/20 08:42:38;;;;;;;40.00;16.93;;;;;;;;;;1729275;82;21140;-81
2021/01/20 08:45:12;;;;;;;34.58;16.75;;;;;;;;;;1728340;82;21170;-81
2021/01/20 08:47:59;;;;;;;35.75;17.48;;;;;;;;;;1731693;82;21545;-81
2021/01/20 08:50:38;;;;;;;35.20;16.73;;;;;;;;;;1740335;82;21528;-81
2021/01/20 08:53:39;;;;;;;41.28;18.12;;;;;;;;;;1728085;81;21496;-81
2021/01/20 08:56:16;;;;;;;45.83;21.35;;;;;;;;;;1650278;85;21168;-78
2021/01/20 08:58:44;;;;;;;35.43;18.17;;;;;;;;;;1695286;82;21175;-80
2021/01/20 09:01:18;;;;;;;42.50;19.73;;;;;;;;;;1713481;83;21198;-80
2021/01/20 09:03:54;;;;;;;37.30;19.67;;;;;;;;;;1726428;81;21584;-79
2021/01/20 09:06:20;;;;;;;46.98;22.70;;;;;;;;;;1743786;82;21188;-79
2021/01/20 09:08:47;;;;;;;47.53;22.58;;;;;;;;;;1730663;81;21172;-79
2021/01/20 09:11:13;;;;;;;43.17;19.95;;;;;;;;;;1721895;80;21159;-78
2021/01/20 09:13:40;;;;;;;43.17;19.77;;;;;;;;;;1732507;81;21105;-81
2021/01/20 09:16:07;;;;;;;44.55;20.95;;;;;;;;;;1736565;81;21179;-81
2021/01/20 09:18:36;;;;;;;41.20;21.62;;;;;;;;;;1748185;80;21141;-82
2021/01/20 09:21:01;;;;;;;47.13;22.32;;;;;;;;;;1729199;80;21193;-80
2021/01/20 09:23:28;;;;;;;45.50;22.32;;;;;;;;;;1741727;82;21196;-81
2021/01/20 09:25:55;;;;;;;43.52;20.43;;;;;;;;;;1746483;82;21184;-78
2021/01/20 09:28:21;;;;;;;45.38;22.98;;;;;;;;;;1746901;80;21140;-78
2021/01/20 09:30:47;;;;;;;52.85;24.55;;;;;;;;;;1689609;83;21120;-79
2021/01/20 09:33:13;;;;;;;51.15;23.40;;;;;;;;;;1719888;81;21576;-78
2021/01/20 09:35:40;;;;;;;45.08;21.93;;;;;;;;;;1726424;81;21164;-78
2021/01/20 09:38:06;;;;;;;46.02;22.45;;;;;;;;;;1738686;82;21156;-81
2021/01/20 09:40:35;;;;;;;42.93;21.00;;;;;;;;;;1737968;81;21184;-81
2021/01/20 09:43:04;;;;;;;42.85;19.57;;;;;;;;;;1731051;81;21282;-81
2021/01/20 09:45:31;;;;;;;38.98;19.67;;;;;;;;;;1710419;84;21156;-82
2021/01/20 09:47:59;;;;;;;44.13;20.23;;;;;;;;;;1725046;81;21144;-83
2021/01/20 09:50:34;;;;;;;43.13;21.52;;;;;;;;;;1720326;82;21187;-82
2021/01/20 09:53:01;;;;;;;52.10;25.97;;;;;;;;;;1715406;81;21475;-80
2021/01/20 09:55:27;;;;;;;47.25;23.77;;;;;;;;;;1710470;83;21169;-79
2021/01/20 09:57:53;;;;;;;60.60;29.23;;;;;;;;;;1710131;82;21117;-79
2021/01/20 10:00:19;;;;;;;50.70;25.27;;;;;;;;;;1710194;84;21185;-81
2021/01/20 10:02:46;;;;;;;60.25;29.18;;;;;;;;;;1710407;83;21152;-82
2021/01/20 10:05:12;;;;;;;60.08;29.48;;;;;;;;;;1719187;82;21216;-80
2021/01/20 10:07:39;;;;;;;52.03;27.17;;;;;;;;;;1717714;82;21196;-82
2021/01/20 10:10:17;;;;;;;46.70;24.92;;;;;;;;;;1723711;82;21176;-82
2021/01/20 10:12:42;;;;;;;51.33;27.10;;;;;;;;;;1716101;82;21200;-81
2021/01/20 10:15:09;;;;;;;55.20;27.60;;;;;;;;;;1713747;82;21572;-82
2021/01/20 10:17:36;;;;;;;53.87;25.72;;;;;;;;;;1716517;82;21133;-80
2021/01/20 10:20:05;;;;;;;50.03;24.95;;;;;;;;;;1735172;82;21145;-80
2021/01/20 10:22:31;;;;;;;49.40;24.47;;;;;;;;;;1728177;82;21473;-82
2021/01/20 10:24:58;;;;;;;50.70;24.37;;;;;;;;;;1732373;82;21407;-81
2021/01/20 10:27:24;;;;;;;45.85;23.77;;;;;;;;;;1717113;82;21144;-81
2021/01/20 10:29:50;;;;;;;55.43;27.67;;;;;;;;;;1693842;84;21238;-79
2021/01/20 10:32:17;;;;;;;51.68;25.57;;;;;;;;;;1711685;82;21198;-82
2021/01/20 10:34:43;;;;;;;46.95;26.57;;;;;;;;;;1710696;82;21109;-79
2021/01/20 10:37:09;;;;;;;45.58;24.87;;;;;;;;;;1712745;82;21153;-82
2021/01/20 10:39:45;;;;;;;47.38;23.98;;;;;;;;;;1710570;82;21205;-83
2021/01/20 10:42:08;;;;;;;49.95;24.27;;;;;;;;;;1713455;82;21196;-83
2021/01/20 10:44:35;;;;;;;45.33;21.35;;;;;;;;;;1716629;82;21376;-81
2021/01/20 10:47:01;;;;;;;49.95;22.80;;;;;;;;;;1712914;82;21230;-80
2021/01/20 10:49:27;;;;;;;44.50;22.13;;;;;;;;;;1719305;82;21121;-83
2021/01/20 10:51:53;;;;;;;42.13;21.57;;;;;;;;;;1716321;82;21129;-77
2021/01/20 10:54:23;;;;;;;50.23;24.80;;;;;;;;;;1721670;82;21144;-79
2021/01/20 10:56:54;;;;;;;46.80;21.82;;;;;;;;;;1722732;82;21587;-81
2021/01/20 10:59:26;;;;;;;52.60;25.85;;;;;;;;;;1720872;82;21128;-80
2021/01/20 11:01:57;;;;;;;34.40;16.02;;;;;;;;;;1732878;81;21150;-80
2021/01/20 11:04:40;;;;;;;50.98;25.35;;;;;;;;;;1735811;82;21575;-81
2021/01/20 11:07:13;;;;;;;32.88;16.48;;;;;;;;;;1719327;82;21132;-77
2021/01/20 11:09:42;;;;;;;49.55;24.32;;;;;;;;;;1718333;81;21195;-79
2021/01/20 11:12:09;;;;;;;46.98;22.67;;;;;;;;;;1731735;81;21208;-79
2021/01/20 11:14:40;;;;;;;46.70;25.43;;;;;;;;;;1735821;81;21203;-80
2021/01/20 11:17:06;;;;;;;53.73;26.00;;;;;;;;;;1734103;81;21151;-80
2021/01/20 11:19:38;;;;;;;49.15;23.55;;;;;;;;;;1725980;81;21129;-81
2021/01/20 11:22:14;;;;;;;48.52;23.42;;;;;;;;;;1739423;81;21185;-80
2021/01/20 11:24:43;;;;;;;47.88;23.35;;;;;;;;;;1726802;81;21141;-79
2021/01/20 11:27:09;;;;;;;48.98;23.40;;;;;;;;;;1730379;81;21877;-80
2021/01/20 11:29:37;;;;;;;50.92;25.60;;;;;;;;;;1729424;81;21209;-80
2021/01/20 11:32:04;;;;;;;52.83;27.27;;;;;;;;;;1740301;81;21203;-82
2021/01/20 11:34:30;;;;;;;57.43;29.80;;;;;;;;;;1723375;82;21163;-78
2021/01/20 11:36:58;;;;;;;71.28;35.88;;;;;;;;;;1736583;80;21203;-78
2021/01/20 11:39:26;;;;;;;76.40;33.78;;;;;;;;;;1739307;80;21647;-82
2021/01/20 11:41:52;;;;;;;79.20;39.90;;;;;;;;;;1745457;80;22274;-78
2021/01/20 11:44:24;;;;;;;63.70;34.08;;;;;;;;;;1713363;81;21570;-82
2021/01/20 11:46:50;;;;;;;65.92;33.33;;;;;;;;;;1697959;81;21194;-82
2021/01/20 11:49:17;;;;;;;92.92;43.33;;;;;;;;;;1714337;81;21156;-81
2021/01/20 11:51:43;;;;;;;118.72;56.85;;;;;;;;;;1738243;80;21198;-79
2021/01/20 11:54:09;;;;;;;71.07;34.58;;;;;;;;;;1717775;80;21164;-80
2021/01/20 11:56:35;;;;;;;46.63;24.30;;;;;;;;;;1740716;80;21636;-82
2021/01/20 11:59:02;;;;;;;52.40;24.63;;;;;;;;;;1741820;80;21501;-78
2021/01/20 12:01:34;;;;;;;59.70;31.12;;;;;;;;;;1752466;80;21199;-78
2021/01/20 12:04:01;;;;;;;62.27;29.67;;;;;;;;;;1741287;80;21136;-78
2021/01/20 12:06:27;;;;;;;77.55;40.43;;;;;;;;;;1728869;82;21211;-84
2021/01/20 12:08:53;;;;;;;61.20;33.08;;;;;;;;;;1747820;80;21158;-83
2021/01/20 12:11:26;;;;;;;54.15;29.00;;;;;;;;;;1740917;80;21136;-80
2021/01/20 12:13:52;;;;;;;56.33;27.42;;;;;;;;;;1734014;82;21638;-88
2021/01/20 12:16:19;;;;;;;52.38;25.65;;;;;;;;;;1747873;82;21148;-79
2021/01/20 12:18:45;;;;;;;46.23;22.95;;;;;;;;;;1744256;80;21147;-77
2021/01/20 12:21:11;;;;;;;46.83;24.55;;;;;;;;;;1741211;80;21223;-77
2021/01/20 12:23:37;;;;;;;59.03;27.85;;;;;;;;;;1696251;82;21183;-81
2021/01/20 12:26:04;;;;;;;63.13;29.10;;;;;;;;;;1743058;82;21121;-86
2021/01/20 12:28:31;;;;;;;62.80;30.65;;;;;;;;;;1747128;82;21607;-85
2021/01/20 12:30:57;;;;;;;55.17;28.87;;;;;;;;;;1738062;82;21124;-86
2021/01/20 12:33:23;;;;;;;52.48;25.50;;;;;;;;;;1741875;82;21140;-84
2021/01/20 12:35:51;;;;;;;61.80;29.90;;;;;;;;;;1742480;80;21180;-84
2021/01/20 12:38:18;;;;;;;92.37;43.38;;;;;;;;;;1749147;82;21147;-82
2021/01/20 12:40:44;;;;;;;76.35;36.00;;;;;;;;;;1737260;82;21124;-87
2021/01/20 12:43:10;;;;;;;79.00;34.85;;;;;;;;;;1730386;82;21183;-86
2021/01/20 12:45:40;;;;;;;69.62;33.45;;;;;;;;;;1750686;82;21157;-82
2021/01/20 12:48:08;;;;;;;53.73;25.10;;;;;;;;;;1753741;82;21556;-82
2021/01/20 12:50:34;;;;;;;52.62;25.85;;;;;;;;;;1746166;81;21151;-85
2021/01/20 12:53:03;;;;;;;74.70;33.78;;;;;;;;;;1725908;82;21310;-82
2021/01/20 12:55:28;;;;;;;73.52;35.40;;;;;;;;;;1725566;82;21213;-81
2021/01/20 12:57:54;;;;;;;56.75;28.25;;;;;;;;;;1753775;82;21143;-78
2021/01/20 13:00:21;;;;;;;52.88;27.48;;;;;;;;;;1739252;82;21136;-81
2021/01/20 13:02:48;;;;;;;57.45;26.27;;;;;;;;;;1734549;82;21163;-80
2021/01/20 13:05:14;;;;;;;52.03;27.17;;;;;;;;;;1731835;82;21176;-81
2021/01/20 13:07:40;;;;;;;58.33;33.15;;;;;;;;;;1752615;82;21147;-84
2021/01/20 13:10:07;;;;;;;59.80;30.37;;;;;;;;;;1745457;82;21128;-88
2021/01/20 13:12:33;;;;;;;59.85;29.92;;;;;;;;;;1724183;83;21191;-84
2021/01/20 13:14:59;;;;;;;56.60;28.87;;;;;;;;;;1734928;82;21187;-84
2021/01/20 13:17:25;;;;;;;62.85;30.43;;;;;;;;;;1732561;82;21293;-83
2021/01/20 13:19:52;;;;;;;54.00;27.87;;;;;;;;;;1725999;82;21459;-81
2021/01/20 13:22:18;;;;;;;67.10;31.60;;;;;;;;;;1724218;82;21318;-81
2021/01/20 13:24:44;;;;;;;59.63;30.65;;;;;;;;;;1729350;82;21211;-83
2021/01/20 13:27:10;;;;;;;51.08;24.25;;;;;;;;;;1752897;82;21171;-83
2021/01/20 13:29:36;;;;;;;67.30;31.75;;;;;;;;;;1734918;82;21168;-81
2021/01/20 13:32:09;;;;;;;55.60;25.30;;;;;;;;;;1737113;82;21171;-80
2021/01/20 13:34:33;;;;;;;63.40;30.17;;;;;;;;;;1748689;82;21144;-79
2021/01/20 13:36:59;;;;;;;59.65;27.17;;;;;;;;;;1727595;81;21133;-79
2021/01/20 13:39:25;;;;;;;54.70;25.43;;;;;;;;;;1710498;83;21141;-80
2021/01/20 13:41:51;;;;;;;59.60;28.35;;;;;;;;;;1720264;82;21145;-79
2021/01/20 13:44:17;;;;;;;59.40;27.77;;;;;;;;;;1719258;82;21149;-80
2021/01/20 13:46:43;;;;;;;66.47;32.50;;;;;;;;;;1710251;82;21153;-80
2021/01/20 13:49:13;;;;;;;83.80;39.15;;;;;;;;;;1710220;82;21185;-81
2021/01/20 13:51:42;;;;;;;59.80;29.23;;;;;;;;;;1719613;82;21168;-80
2021/01/20 13:54:08;;;;;;;65.28;30.30;;;;;;;;;;1737511;82;21548;-81
2021/01/20 13:56:34;;;;;;;60.40;28.87;;;;;;;;;;1732813;81;21152;-81
2021/01/20 13:59:00;;;;;;;54.13;27.15;;;;;;;;;;1724492;81;21145;-77
2021/01/20 14:01:27;;;;;;;53.60;26.12;;;;;;;;;;1720942;82;21568;-80
2021/01/20 14:03:53;;;;;;;56.42;26.27;;;;;;;;;;1710498;82;21144;-80
2021/01/20 14:06:19;;;;;;;49.98;24.47;;;;;;;;;;1711935;82;21144;-80
2021/01/20 14:08:51;;;;;;;58.87;27.87;;;;;;;;;;1728565;82;21564;-81
2021/01/20 14:11:17;;;;;;;55.80;26.68;;;;;;;;;;1739593;82;21148;-80
2021/01/20 14:13:43;;;;;;;73.33;35.08;;;;;;;;;;1739818;82;21160;-82
2021/01/20 14:16:19;;;;;;;61.60;30.15;;;;;;;;;;1737895;82;21141;-81
2021/01/20 14:18:42;;;;;;;61.73;29.20;;;;;;;;;;1707213;83;21148;-80
2021/01/20 14:21:09;;;;;;;63.13;29.07;;;;;;;;;;1712445;82;21204;-79
2021/01/20 14:26:09;;;;;;;60.73;29.27;;;;;;;;;;1715514;82;21143;-79
2021/01/20 14:28:35;;;;;;;63.98;29.35;;;;;;;;;;1724311;82;21149;-79
2021/01/20 14:31:01;;;;;;;96.95;45.48;;;;;;;;;;1713973;82;21152;-80
2021/01/20 14:33:27;;;;;;;87.70;43.70;;;;;;;;;;1689195;84;21191;-80
2021/01/20 14:35:54;;;;;;;65.17;31.37;;;;;;;;;;1678652;85;21230;-79
2021/01/20 14:38:21;;;;;;;60.40;29.18;;;;;;;;;;1656257;85;21163;-81
2021/01/20 14:40:53;;;;;;;78.17;40.20;;;;;;;;;;1690932;84;21170;-82
2021/01/20 14:43:15;;;;;;;64.92;31.77;;;;;;;;;;1680950;85;21178;-80
2021/01/20 14:45:43;;;;;;;64.37;31.97;;;;;;;;;;1666162;86;21338;-80
2021/01/20 14:48:10;;;;;;;68.72;30.35;;;;;;;;;;1719814;82;21148;-80
2021/01/20 14:50:38;;;;;;;65.55;30.95;;;;;;;;;;1718256;82;21153;-81
2021/01/20 14:53:15;;;;;;;59.27;27.42;;;;;;;;;;1718463;83;21172;-80
2021/01/20 14:55:41;;;;;;;62.13;28.52;;;;;;;;;;1725006;82;21131;-81
2021/01/20 14:58:07;;;;;;;62.27;28.83;;;;;;;;;;1741359;82;21223;-81
2021/01/20 15:00:33;;;;;;;59.05;29.63;;;;;;;;;;1745206;82;21168;-80
2021/01/20 15:03:00;;;;;;;64.50;29.98;;;;;;;;;;1740019;82;21572;-79
2021/01/20 15:05:26;;;;;;;72.85;32.30;;;;;;;;;;1735282;82;21144;-81
2021/01/20 15:07:52;;;;;;;66.05;31.33;;;;;;;;;;1723972;82;21173;-80
2021/01/20 15:10:18;;;;;;;61.23;27.52;;;;;;;;;;1723745;82;21144;-79
2021/01/20 15:12:45;;;;;;;60.30;29.70;;;;;;;;;;1733557;82;21172;-79
2021/01/20 15:15:11;;;;;;;63.80;31.07;;;;;;;;;;1733069;81;21135;-83
2021/01/20 15:17:40;;;;;;;66.00;30.77;;;;;;;;;;1720585;82;21149;-81
2021/01/20 15:20:06;;;;;;;62.93;28.73;;;;;;;;;;1720025;82;21176;-76
2021/01/20 15:22:33;;;;;;;62.15;27.25;;;;;;;;;;1722630;82;21140;-76
2021/01/20 15:24:59;;;;;;;66.97;28.95;;;;;;;;;;1727587;82;21144;-78
2021/01/20 15:27:25;;;;;;;56.95;25.30;;;;;;;;;;1742546;82;21168;-86
2021/01/20 15:29:52;;;;;;;60.58;28.67;;;;;;;;;;1742627;82;21137;-86
2021/01/20 15:32:18;;;;;;;61.33;29.77;;;;;;;;;;1744655;82;21147;-87
2021/01/20 15:34:45;;;;;;;62.33;28.42;;;;;;;;;;1727206;82;21171;-83
2021/01/20 15:37:11;;;;;;;63.83;27.58;;;;;;;;;;1741017;81;21164;-85
2021/01/20 15:39:38;;;;;;;65.00;28.67;;;;;;;;;;1729340;82;21148;-84
2021/01/20 15:42:04;;;;;;;59.10;29.77;;;;;;;;;;1740002;82;21169;-83
2021/01/20 15:44:31;;;;;;;67.72;31.73;;;;;;;;;;1740001;82;21345;-84
2021/01/20 15:46:57;;;;;;;81.95;36.98;;;;;;;;;;1740263;82;21156;-82
2021/01/20 15:49:23;;;;;;;77.70;35.78;;;;;;;;;;1740190;82;21781;-83
2021/01/20 15:51:49;;;;;;;80.83;36.30;;;;;;;;;;1739147;82;21152;-84
2021/01/20 15:54:15;;;;;;;80.15;37.40;;;;;;;;;;1735224;82;21157;-83
2021/01/20 15:56:43;;;;;;;82.12;34.58;;;;;;;;;;1729386;82;21137;-84
2021/01/20 15:59:09;;;;;;;83.12;36.10;;;;;;;;;;1740165;82;21167;-84
2021/01/20 16:01:35;;;;;;;74.87;35.88;;;;;;;;;;1740146;82;21148;-84
2021/01/20 16:04:12;;;;;;;78.05;34.33;;;;;;;;;;1740283;82;21129;-84
2021/01/20 16:06:29;;;;;;;74.50;34.78;;;;;;;;;;1738495;82;21291;-84
2021/01/20 16:08:56;;;;;;;80.30;36.17;;;;;;;;;;1740087;82;21161;-84
2021/01/20 16:11:22;;;;;;;75.92;34.78;;;;;;;;;;1740123;82;21165;-82
2021/01/20 16:13:49;;;;;;;76.70;35.73;;;;;;;;;;1740225;82;21597;-84
2021/01/20 16:16:15;;;;;;;77.27;33.30;;;;;;;;;;1740320;82;21149;-85
2021/01/20 16:18:41;;;;;;;74.27;34.55;;;;;;;;;;1740245;82;21196;-84
2021/01/20 16:21:07;;;;;;;77.45;33.08;;;;;;;;;;1740218;82;21723;-84
2021/01/20 16:23:33;;;;;;;68.10;32.85;;;;;;;;;;1740338;82;21734;-84
2021/01/20 16:26:00;;;;;;;71.60;33.40;;;;;;;;;;1740411;82;21157;-85
2021/01/20 16:28:26;;;;;;;72.78;31.73;;;;;;;;;;1740324;82;21165;-85
2021/01/20 16:30:52;;;;;;;68.30;31.80;;;;;;;;;;1740262;82;21603;-85
2021/01/20 16:33:18;;;;;;;62.85;30.65;;;;;;;;;;1740271;82;21189;-84
2021/01/20 16:35:45;;;;;;;63.75;30.30;;;;;;;;;;1740106;81;21202;-84
2021/01/20 16:38:11;;;;;;;65.20;30.00;;;;;;;;;;1748311;82;21145;-84
2021/01/20 16:40:37;;;;;;;58.63;28.00;;;;;;;;;;1748215;82;21165;-84
2021/01/20 16:43:03;;;;;;;57.33;28.35;;;;;;;;;;1749221;82;21195;-84
2021/01/20 16:45:29;;;;;;;62.62;30.45;;;;;;;;;;1748215;82;21207;-84
2021/01/20 16:47:56;;;;;;;62.55;28.85;;;;;;;;;;1748269;82;21152;-83
2021/01/20 16:50:22;;;;;;;64.72;28.15;;;;;;;;;;1748355;82;21173;-83
2021/01/20 16:52:49;;;;;;;58.65;29.85;;;;;;;;;;1748128;82;21132;-83
2021/01/20 16:55:15;;;;;;;65.25;29.45;;;;;;;;;;1748268;82;21588;-84
2021/01/20 16:57:41;;;;;;;63.45;29.72;;;;;;;;;;1748145;82;21136;-84
2021/01/20 17:00:08;;;;;;;68.60;30.90;;;;;;;;;;1748190;82;21152;-84
2021/01/20 17:02:34;;;;;;;68.37;30.85;;;;;;;;;;1748229;82;21592;-84
2021/01/20 17:05:00;;;;;;;62.00;29.40;;;;;;;;;;1748495;82;21156;-84
2021/01/20 17:07:26;;;;;;;60.60;29.48;;;;;;;;;;1748134;82;21155;-83
2021/01/20 17:09:52;;;;;;;65.80;30.15;;;;;;;;;;1748176;82;21859;-84
2021/01/20 17:12:18;;;;;;;69.65;29.12;;;;;;;;;;1748631;82;21126;-84
2021/01/20 17:14:45;;;;;;;60.80;28.52;;;;;;;;;;1748232;82;21207;-84
2021/01/20 17:17:11;;;;;;;65.32;28.07;;;;;;;;;;1748075;82;21241;-83
2021/01/20 17:19:37;;;;;;;60.35;28.85;;;;;;;;;;1748110;82;21128;-83
2021/01/20 17:22:03;;;;;;;66.02;29.07;;;;;;;;;;1748493;82;21176;-83
2021/01/20 17:24:29;;;;;;;58.68;29.00;;;;;;;;;;1748658;82;21623;-84
2021/01/20 17:26:55;;;;;;;66.80;28.57;;;;;;;;;;1748062;82;21144;-83
2021/01/20 17:29:22;;;;;;;64.05;28.90;;;;;;;;;;1748062;82;21156;-84
2021/01/20 17:31:48;;;;;;;61.73;29.57;;;;;;;;;;1748025;82;21612;-83
2021/01/20 17:34:16;;;;;;;65.70;29.32;;;;;;;;;;1748018;82;21152;-84
2021/01/20 17:36:45;;;;;;;59.90;28.40;;;;;;;;;;1749667;81;21188;-84
2021/01/20 17:39:11;;;;;;;64.53;29.07;;;;;;;;;;1753777;82;21180;-83
2021/01/20 17:41:38;;;;;;;58.85;27.02;;;;;;;;;;1754114;82;21294;-83
2021/01/20 17:44:04;;;;;;;62.23;28.73;;;;;;;;;;1754072;82;21153;-85
2021/01/20 17:46:30;;;;;;;54.10;27.50;;;;;;;;;;1753935;82;21179;-83
2021/01/20 17:48:56;;;;;;;63.20;28.17;;;;;;;;;;1754061;82;21586;-84
2021/01/20 17:51:24;;;;;;;60.43;27.32;;;;;;;;;;1753926;82;21467;-84
2021/01/20 17:53:50;;;;;;;56.35;27.62;;;;;;;;;;1753857;82;21167;-84
2021/01/20 17:56:17;;;;;;;60.78;26.97;;;;;;;;;;1753851;82;21583;-84
2021/01/20 17:58:43;;;;;;;58.65;27.82;;;;;;;;;;1754310;82;21215;-83
2021/01/20 18:01:09;;;;;;;58.33;26.75;;;;;;;;;;1753961;82;21206;-83
2021/01/20 18:03:35;;;;;;;60.73;26.75;;;;;;;;;;1754180;82;21164;-85
2021/01/20 18:06:02;;;;;;;54.00;25.92;;;;;;;;;;1753954;82;21611;-84
2021/01/20 18:08:28;;;;;;;57.53;26.55;;;;;;;;;;1753828;82;21140;-83
2021/01/20 18:10:54;;;;;;;53.73;25.10;;;;;;;;;;1753952;82;21207;-84
2021/01/20 18:13:20;;;;;;;51.23;25.17;;;;;;;;;;1753825;82;21588;-84
2021/01/20 18:15:47;;;;;;;53.95;26.55;;;;;;;;;;1753808;82;21560;-84
2021/01/20 18:18:13;;;;;;;53.78;28.32;;;;;;;;;;1754094;82;21172;-84
2021/01/20 18:20:39;;;;;;;50.23;24.82;;;;;;;;;;1753894;82;21139;-84
2021/01/20 18:23:05;;;;;;;55.48;26.65;;;;;;;;;;1754144;82;21124;-83
2021/01/20 18:25:31;;;;;;;56.77;26.85;;;;;;;;;;1754126;82;21172;-84
2021/01/20 18:27:58;;;;;;;55.03;26.20;;;;;;;;;;1753902;82;21155;-84
2021/01/20 18:30:25;;;;;;;61.92;29.27;;;;;;;;;;1753740;82;21124;-84
2021/01/20 18:32:51;;;;;;;56.92;27.55;;;;;;;;;;1753990;82;21172;-84
2021/01/20 18:35:17;;;;;;;68.30;30.55;;;;;;;;;;1753976;82;21176;-83
2021/01/20 18:37:44;;;;;;;70.28;31.33;;;;;;;;;;1753851;81;21214;-84
2021/01/20 18:40:10;;;;;;;77.37;36.55;;;;;;;;;;1754246;82;21156;-83
2021/01/20 18:42:36;;;;;;;79.87;35.43;;;;;;;;;;1753941;82;21129;-83
2021/01/20 18:45:03;;;;;;;81.42;35.28;;;;;;;;;;1753944;82;21200;-83
2021/01/20 18:47:30;;;;;;;81.72;36.42;;;;;;;;;;1753931;82;21152;-84
2021/01/20 18:49:58;;;;;;;81.35;39.27;;;;;;;;;;1753835;82;21180;-83
2021/01/20 18:52:26;;;;;;;75.17;37.03;;;;;;;;;;1754272;82;21167;-83
2021/01/20 18:54:56;;;;;;;84.80;37.48;;;;;;;;;;1754107;82;21163;-82
2021/01/20 18:57:22;;;;;;;83.12;38.13;;;;;;;;;;1755145;82;21148;-82
2021/01/20 18:59:48;;;;;;;92.75;41.08;;;;;;;;;;1755116;82;21117;-82
2021/01/20 19:02:14;;;;;;;90.60;40.23;;;;;;;;;;1755197;82;21143;-83
2021/01/20 19:04:40;;;;;;;86.22;38.53;;;;;;;;;;1754964;82;21164;-84
2021/01/20 19:07:07;;;;;;;91.00;40.85;;;;;;;;;;1754157;82;21160;-83
2021/01/20 19:09:39;;;;;;;82.75;37.20;;;;;;;;;;1754184;82;21152;-83
2021/01/20 19:12:07;;;;;;;84.83;37.28;;;;;;;;;;1754079;82;21137;-83
2021/01/20 19:14:33;;;;;;;88.05;38.95;;;;;;;;;;1753636;82;21175;-84
2021/01/20 19:17:01;;;;;;;91.95;40.58;;;;;;;;;;1753785;82;21148;-83
2021/01/20 19:19:27;;;;;;;92.17;41.18;;;;;;;;;;1753865;82;21730;-83
2021/01/20 19:21:54;;;;;;;90.22;37.67;;;;;;;;;;1754098;82;21167;-84
2021/01/20 19:24:21;;;;;;;86.42;39.03;;;;;;;;;;1753779;82;21152;-84
2021/01/20 19:26:50;;;;;;;96.80;40.05;;;;;;;;;;1753915;82;21164;-83
2021/01/20 19:29:17;;;;;;;86.55;34.05;;;;;;;;;;1753634;82;21184;-84
2021/01/20 19:31:44;;;;;;;85.12;35.08;;;;;;;;;;1753754;82;21560;-83
2021/01/20 19:34:10;;;;;;;97.85;40.08;;;;;;;;;;1753825;82;21164;-84
2021/01/20 19:36:37;;;;;;;96.87;37.80;;;;;;;;;;1753893;81;21167;-84
2021/01/20 19:39:05;;;;;;;93.75;37.95;;;;;;;;;;1753720;82;21153;-84
2021/01/20 19:41:31;;;;;;;98.50;38.30;;;;;;;;;;1753415;82;21132;-83
2021/01/20 19:43:58;;;;;;;83.47;35.50;;;;;;;;;;1754518;82;21156;-82
2021/01/20 19:46:26;;;;;;;89.67;36.93;;;;;;;;;;1754423;82;21180;-84
2021/01/20 19:48:55;;;;;;;85.65;36.73;;;;;;;;;;1755166;81;21198;-82
2021/01/20 19:51:21;;;;;;;78.95;32.45;;;;;;;;;;1754737;82;21615;-84
2021/01/20 19:53:47;;;;;;;80.22;33.80;;;;;;;;;;1754291;82;21579;-82
2021/01/20 19:56:14;;;;;;;67.35;30.45;;;;;;;;;;1754479;82;21140;-83
2021/01/20 19:58:40;;;;;;;83.55;34.15;;;;;;;;;;1754335;82;21152;-82
2021/01/20 20:01:06;;;;;;;79.00;34.73;;;;;;;;;;1754121;82;21176;-83
2021/01/20 20:03:32;;;;;;;87.08;35.25;;;;;;;;;;1754398;82;21160;-83
2021/01/20 20:05:58;;;;;;;82.22;34.13;;;;;;;;;;1754504;82;21143;-83
2021/01/20 20:08:27;;;;;;;77.67;33.60;;;;;;;;;;1754183;82;21631;-83
2021/01/20 20:10:53;;;;;;;79.50;35.40;;;;;;;;;;1753749;82;21204;-84
2021/01/20 20:13:20;;;;;;;91.50;37.58;;;;;;;;;;1754585;82;21152;-82
2021/01/20 20:15:50;;;;;;;86.40;35.88;;;;;;;;;;1754155;82;21152;-84
2021/01/20 20:18:21;;;;;;;88.50;36.50;;;;;;;;;;1754289;82;21156;-82
2021/01/20 20:20:48;;;;;;;81.78;35.48;;;;;;;;;;1754640;82;21124;-84
2021/01/20 20:23:14;;;;;;;94.05;37.60;;;;;;;;;;1754485;82;21192;-83
2021/01/20 20:25:40;;;;;;;87.22;35.85;;;;;;;;;;1754159;82;21148;-83
2021/01/20 20:28:06;;;;;;;87.10;35.68;;;;;;;;;;1754517;82;21168;-81
2021/01/20 20:30:38;;;;;;;88.00;36.20;;;;;;;;;;1754120;82;21160;-84
2021/01/20 20:33:04;;;;;;;85.65;34.08;;;;;;;;;;1754406;82;21180;-82
2021/01/20 20:35:32;;;;;;;80.97;35.33;;;;;;;;;;1754134;82;21188;-84
2021/01/20 20:38:02;;;;;;;86.78;34.98;;;;;;;;;;1745454;81;21589;-82
2021/01/20 20:40:29;;;;;;;82.00;35.58;;;;;;;;;;1739782;82;21296;-84
2021/01/20 20:42:59;;;;;;;81.95;34.33;;;;;;;;;;1738226;82;21137;-83
2021/01/20 20:45:27;;;;;;;69.97;30.60;;;;;;;;;;1740263;82;21121;-82
2021/01/20 20:47:53;;;;;;;76.82;33.28;;;;;;;;;;1740374;82;21179;-83
2021/01/20 20:50:22;;;;;;;83.30;35.08;;;;;;;;;;1740157;82;21180;-83
2021/01/20 20:52:47;;;;;;;90.10;38.10;;;;;;;;;;1740686;82;21146;-84
2021/01/20 20:55:14;;;;;;;91.63;40.55;;;;;;;;;;1740878;82;21203;-84